createdAt,value
2022-10-09T00:00:29.071Z,101262.22
2022-10-09T00:04:30.654Z,101263.13
2022-10-09T00:08:34.829Z,101264.97
2022-10-09T00:12:36.350Z,101270.38
2022-10-09T00:16:37.886Z,101267.03
2022-10-09T00:20:42.285Z,101276.00
2022-10-09T00:24:43.832Z,101266.38
2022-10-09T00:28:46.376Z,101270.03
2022-10-09T00:32:48.171Z,101262.25
2022-10-09T00:36:49.958Z,101271.25
2022-10-09T00:40:51.988Z,101269.56
2022-10-09T00:45:00.025Z,101267.06
2022-10-09T00:49:23.526Z,101269.03
2022-10-09T00:53:28.454Z,101272.03
2022-10-09T00:57:32.686Z,101274.09
2022-10-09T01:01:34.501Z,101266.50
2022-10-09T01:05:57.343Z,101268.91
2022-10-09T01:10:01.859Z,101275.44
2022-10-09T01:14:28.857Z,101269.72
2022-10-09T01:18:33.473Z,101278.00
2022-10-09T01:22:50.839Z,101276.06
2022-10-09T01:27:05.107Z,101285.69
2022-10-09T01:31:07.939Z,101277.25
2022-10-09T01:35:12.561Z,101284.34
2022-10-09T01:39:18.265Z,101283.78
2022-10-09T01:43:20.052Z,101294.53
2022-10-09T01:47:22.215Z,101287.34
2022-10-09T01:51:29.767Z,101296.81
2022-10-09T01:55:50.137Z,101297.78
2022-10-09T01:59:53.454Z,101301.31
2022-10-09T02:03:58.339Z,101305.94
2022-10-09T02:08:00.143Z,101309.66
2022-10-09T02:12:06.636Z,101309.72
2022-10-09T02:16:21.380Z,101316.09
2022-10-09T02:20:31.020Z,101316.16
2022-10-09T02:24:33.065Z,101324.22
2022-10-09T02:28:35.217Z,101319.88
2022-10-09T02:32:36.790Z,101320.84
2022-10-09T02:36:39.232Z,101317.56
2022-10-09T02:40:40.889Z,101325.50
2022-10-09T02:44:42.600Z,101325.63
2022-10-09T02:48:44.685Z,101336.16
2022-10-09T02:52:46.447Z,101337.97
2022-10-09T02:56:48.099Z,101337.13
2022-10-09T03:00:50.755Z,101349.59
2022-10-09T03:04:52.317Z,101343.16
2022-10-09T03:08:54.831Z,101346.09
2022-10-09T03:12:56.440Z,101347.13
2022-10-09T03:16:57.881Z,101348.16
2022-10-09T03:20:59.474Z,101360.28
2022-10-09T03:25:01.012Z,101363.81
2022-10-09T03:29:02.554Z,101362.00
2022-10-09T03:33:03.990Z,101368.34
2022-10-09T03:37:06.045Z,101371.94
2022-10-09T03:41:07.653Z,101371.00
2022-10-09T03:45:09.600Z,101375.78
2022-10-09T03:49:11.108Z,101377.63
2022-10-09T03:53:13.839Z,101381.25
2022-10-09T03:57:15.402Z,101384.19
2022-10-09T04:01:17.060Z,101385.06
2022-10-09T04:05:18.812Z,101395.66
2022-10-09T04:09:20.317Z,101389.63
2022-10-09T04:13:21.736Z,101391.44
2022-10-09T04:17:23.373Z,101394.94
2022-10-09T04:21:25.046Z,101391.44
2022-10-09T04:25:26.676Z,101393.44
2022-10-09T04:29:28.176Z,101392.88
2022-10-09T04:33:29.932Z,101394.78
2022-10-09T04:37:31.454Z,101392.81
2022-10-09T04:41:37.446Z,101396.34
2022-10-09T04:45:40.598Z,101399.09
2022-10-09T04:49:42.191Z,101401.03
2022-10-09T04:53:44.601Z,101392.34
2022-10-09T04:57:46.106Z,101402.00
2022-10-09T05:01:47.642Z,101396.03
2022-10-09T05:05:49.223Z,101404.78
2022-10-09T05:09:50.823Z,101405.63
2022-10-09T05:13:55.560Z,101413.25
2022-10-09T05:17:57.204Z,101413.53
2022-10-09T05:22:00.257Z,101419.00
2022-10-09T05:26:07.296Z,101430.53
2022-10-09T05:30:09.539Z,101437.47
2022-10-09T05:34:11.415Z,101433.06
2022-10-09T05:38:13.051Z,101430.44
2022-10-09T05:42:14.558Z,101429.34
2022-10-09T05:46:24.712Z,101432.53
2022-10-09T05:50:26.264Z,101433.91
2022-10-09T05:54:28.012Z,101437.78
2022-10-09T05:58:29.538Z,101441.53
2022-10-09T06:02:31.078Z,101429.78
2022-10-09T06:06:35.672Z,101435.16
2022-10-09T06:10:37.474Z,101435.41
2022-10-09T06:14:39.098Z,101437.31
2022-10-09T06:18:46.761Z,101441.38
2022-10-09T06:22:51.738Z,101444.34
2022-10-09T06:26:53.402Z,101452.06
2022-10-09T06:31:01.592Z,101457.38
2022-10-09T06:35:03.200Z,101456.81
2022-10-09T06:39:06.824Z,101467.00
2022-10-09T06:43:08.554Z,101472.16
2022-10-09T06:47:10.094Z,101465.53
2022-10-09T06:51:14.732Z,101467.94
2022-10-09T06:55:16.312Z,101472.38
2022-10-09T06:59:18.052Z,101474.94
2022-10-09T07:03:19.566Z,101490.34
2022-10-09T07:07:21.317Z,101482.31
2022-10-09T07:11:38.726Z,101483.09
2022-10-09T07:15:45.903Z,101485.78
2022-10-09T07:19:49.104Z,101493.47
2022-10-09T07:23:50.663Z,101497.00
2022-10-09T07:27:52.273Z,101488.28
2022-10-09T07:31:53.786Z,101490.66
2022-10-09T07:35:56.900Z,101505.13
2022-10-09T07:39:58.401Z,101512.00
2022-10-09T07:44:00.380Z,101511.63
2022-10-09T07:48:01.884Z,101524.66
2022-10-09T07:52:03.406Z,101516.84
2022-10-09T07:56:06.184Z,101507.44
2022-10-09T08:00:08.445Z,101511.69
2022-10-09T08:04:13.836Z,101513.13
2022-10-09T08:08:15.569Z,101515.81
2022-10-09T08:12:17.122Z,101505.69
2022-10-09T08:16:20.555Z,101507.47
2022-10-09T08:20:22.452Z,101503.16
2022-10-09T08:24:24.009Z,101516.50
2022-10-09T08:28:25.918Z,101513.66
2022-10-09T08:32:27.525Z,101511.63
2022-10-09T08:36:29.624Z,101504.50
2022-10-09T08:40:47.037Z,101500.25
2022-10-09T08:44:49.803Z,101507.31
2022-10-09T08:48:53.879Z,101510.31
2022-10-09T08:53:34.685Z,101508.06
2022-10-09T08:57:36.361Z,101497.25
2022-10-09T09:02:06.050Z,101503.16
2022-10-09T09:06:07.604Z,101502.69
2022-10-09T09:10:21.363Z,101495.97
2022-10-09T09:14:37.789Z,101492.28
2022-10-09T09:19:09.515Z,101485.69
2022-10-09T09:23:15.752Z,101491.22
2022-10-09T09:27:20.507Z,101489.91
2022-10-09T09:31:27.200Z,101492.13
2022-10-09T09:36:09.425Z,101476.28
2022-10-09T09:40:36.823Z,101476.59
2022-10-09T09:44:42.829Z,101470.81
2022-10-09T09:48:48.535Z,101466.06
2022-10-09T09:52:50.721Z,101464.38
2022-10-09T09:57:14.826Z,101453.41
2022-10-09T10:01:22.769Z,101459.56
2022-10-09T10:05:27.289Z,101453.03
2022-10-09T10:09:28.996Z,101447.00
2022-10-09T10:13:39.476Z,101445.16
2022-10-09T10:17:41.334Z,101451.53
2022-10-09T10:22:01.332Z,101442.94
2022-10-09T10:26:40.023Z,101443.19
2022-10-09T10:30:42.811Z,101434.16
2022-10-09T10:35:15.036Z,101435.91
2022-10-09T10:39:50.879Z,101433.13
2022-10-09T10:44:06.907Z,101423.84
2022-10-09T10:48:22.213Z,101413.47
2022-10-09T10:52:35.948Z,101408.09
2022-10-09T10:56:53.281Z,101418.16
2022-10-09T11:01:11.698Z,101404.25
2022-10-09T11:05:31.736Z,101398.25
2022-10-09T11:10:02.733Z,101397.19
2022-10-09T11:14:29.128Z,101392.44
2022-10-09T11:18:52.513Z,101380.91
2022-10-09T11:23:10.597Z,101374.22
2022-10-09T11:27:24.762Z,101367.03
2022-10-09T11:31:34.989Z,101351.66
2022-10-09T11:35:46.125Z,101345.13
2022-10-09T11:39:48.214Z,101337.88
2022-10-09T11:44:13.608Z,101330.13
2022-10-09T11:48:42.576Z,101316.19
2022-10-09T11:53:09.962Z,101306.41
2022-10-09T11:57:15.107Z,101298.78
2022-10-09T12:01:24.007Z,101299.53
2022-10-09T12:05:37.880Z,101293.72
2022-10-09T12:09:47.446Z,101285.88
2022-10-09T12:13:58.282Z,101285.31
2022-10-09T12:17:59.985Z,101275.63
2022-10-09T12:22:13.321Z,101271.84
2022-10-09T12:26:21.364Z,101255.16
2022-10-09T12:30:29.139Z,101258.84
2022-10-09T12:34:36.177Z,101249.66
2022-10-09T12:38:38.236Z,101253.25
2022-10-09T12:42:41.257Z,101243.06
2022-10-09T12:46:43.097Z,101234.56
2022-10-09T12:50:44.743Z,101234.84
2022-10-09T12:54:46.272Z,101228.06
2022-10-09T12:58:48.021Z,101224.16
2022-10-09T13:02:49.974Z,101219.53
2022-10-09T13:06:53.431Z,101210.63
2022-10-09T13:10:55.807Z,101205.13
2022-10-09T13:15:04.096Z,101196.84
2022-10-09T13:19:24.474Z,101191.63
2022-10-09T13:23:30.209Z,101178.63
2022-10-09T13:27:35.258Z,101181.44
2022-10-09T13:31:37.111Z,101194.81
2022-10-09T13:35:42.027Z,101170.44
2022-10-09T13:39:43.702Z,101168.75
2022-10-09T13:43:45.767Z,101161.50
2022-10-09T13:47:47.866Z,101158.13
2022-10-09T13:51:49.809Z,101150.53
2022-10-09T13:55:59.986Z,101150.28
2022-10-09T14:00:04.014Z,101137.63
2022-10-09T14:04:13.674Z,101135.22
2022-10-09T14:08:15.473Z,101136.69
2022-10-09T14:12:17.227Z,101122.34
2022-10-09T14:16:21.509Z,101122.28
2022-10-09T14:20:25.128Z,101119.56
2022-10-09T14:24:27.575Z,101111.81
2022-10-09T14:28:29.292Z,101112.91
2022-10-09T14:32:41.754Z,101102.31
2022-10-09T14:36:46.549Z,101096.44
2022-10-09T14:40:48.316Z,101093.06
2022-10-09T14:44:52.151Z,101092.19
2022-10-09T14:48:57.928Z,101094.28
2022-10-09T14:52:59.606Z,101081.56
2022-10-09T14:57:03.544Z,101092.50
2022-10-09T15:01:05.643Z,101091.19
2022-10-09T15:05:08.492Z,101077.81
2022-10-09T15:09:10.275Z,101080.22
2022-10-09T15:13:12.009Z,101084.13
2022-10-09T15:17:13.728Z,101083.31
2022-10-09T15:21:18.616Z,101076.88
2022-10-09T15:25:20.305Z,101077.41
2022-10-09T15:29:22.110Z,101067.75
2022-10-09T15:33:23.718Z,101070.09
2022-10-09T15:37:25.380Z,101073.19
2022-10-09T15:41:30.253Z,101069.78
2022-10-09T15:45:34.606Z,101072.94
2022-10-09T15:49:36.369Z,101066.59
2022-10-09T15:53:38.792Z,101071.00
2022-10-09T15:57:40.500Z,101061.06
2022-10-09T16:01:42.770Z,101060.19
2022-10-09T16:05:50.679Z,101066.59
2022-10-09T16:09:54.588Z,101068.81
2022-10-09T16:13:57.476Z,101066.59
2022-10-09T16:17:59.067Z,101073.31
2022-10-09T16:22:00.624Z,101071.72
2022-10-09T16:26:03.612Z,101067.81
2022-10-09T16:30:05.664Z,101069.88
2022-10-09T16:34:07.977Z,101074.31
2022-10-09T16:38:09.483Z,101071.75
2022-10-09T16:42:11.794Z,101073.47
2022-10-09T16:46:23.301Z,101072.13
2022-10-09T16:50:25.605Z,101072.25
2022-10-09T16:54:30.465Z,101070.19
2022-10-09T16:58:32.153Z,101073.19
2022-10-09T17:02:33.697Z,101070.78
2022-10-09T17:06:35.596Z,101066.00
2022-10-09T17:10:41.820Z,101069.47
2022-10-09T17:14:43.509Z,101060.53
2022-10-09T17:18:46.789Z,101058.75
2022-10-09T17:22:49.033Z,101058.22
2022-10-09T17:26:50.798Z,101053.94
2022-10-09T17:30:52.415Z,101055.81
2022-10-09T17:34:54.084Z,101054.75
2022-10-09T17:38:56.469Z,101058.16
2022-10-09T17:42:58.215Z,101056.72
2022-10-09T17:47:00.849Z,101053.50
2022-10-09T17:51:06.357Z,101060.63
2022-10-09T17:55:11.230Z,101056.22
2022-10-09T17:59:12.867Z,101058.75
2022-10-09T18:03:15.536Z,101056.81
2022-10-09T18:07:19.414Z,101062.19
2022-10-09T18:11:23.430Z,101057.72
2022-10-09T18:15:24.983Z,101062.97
2022-10-09T18:19:26.665Z,101057.44
2022-10-09T18:23:28.258Z,101054.88
2022-10-09T18:27:29.901Z,101057.19
2022-10-09T18:31:32.273Z,101061.91
2022-10-09T18:35:38.586Z,101057.50
2022-10-09T18:39:40.125Z,101057.44
2022-10-09T18:43:41.875Z,101055.88
2022-10-09T18:47:44.306Z,101046.59
2022-10-09T18:51:47.253Z,101045.31
2022-10-09T18:55:49.227Z,101040.94
2022-10-09T18:59:52.683Z,101045.00
2022-10-09T19:03:55.788Z,101038.28
2022-10-09T19:07:57.614Z,101040.66
2022-10-09T19:11:59.254Z,101038.91
2022-10-09T19:16:04.569Z,101037.41
2022-10-09T19:20:06.755Z,101032.41
2022-10-09T19:24:08.762Z,101032.09
2022-10-09T19:28:11.656Z,101030.19
2022-10-09T19:32:13.338Z,101026.91
2022-10-09T19:36:15.290Z,101023.41
2022-10-09T19:40:16.844Z,101027.03
2022-10-09T19:44:21.217Z,101022.25
2022-10-09T19:48:24.290Z,101011.06
2022-10-09T19:52:26.103Z,101012.66
2022-10-09T19:56:30.909Z,101012.59
2022-10-09T20:00:32.665Z,101004.38
2022-10-09T20:04:34.466Z,100996.47
2022-10-09T20:08:37.891Z,100995.81
2022-10-09T20:12:39.764Z,100996.03
2022-10-09T20:16:41.320Z,100989.88
2022-10-09T20:20:47.750Z,100983.72
2022-10-09T20:24:53.832Z,100982.91
2022-10-09T20:28:55.743Z,100975.94
2022-10-09T20:32:59.479Z,100970.88
2022-10-09T20:37:01.457Z,100974.16
2022-10-09T20:41:08.252Z,100964.84
2022-10-09T20:45:09.964Z,100960.47
2022-10-09T20:49:13.859Z,100955.63
2022-10-09T20:53:16.607Z,100953.19
2022-10-09T20:57:18.817Z,100952.53
2022-10-09T21:01:21.724Z,100942.84
2022-10-09T21:05:23.647Z,100938.81
2022-10-09T21:09:28.484Z,100941.28
2022-10-09T21:13:33.264Z,100932.75
2022-10-09T21:17:35.323Z,100929.25
2022-10-09T21:21:37.082Z,100925.56
2022-10-09T21:25:39.235Z,100929.44
2022-10-09T21:29:40.934Z,100925.66
2022-10-09T21:33:42.596Z,100918.06
2022-10-09T21:37:44.203Z,100916.84
2022-10-09T21:41:45.906Z,100913.63
2022-10-09T21:45:50.101Z,100908.31
2022-10-09T21:49:51.678Z,100910.63
2022-10-09T21:53:54.484Z,100904.75
2022-10-09T21:57:56.150Z,100896.56
2022-10-09T22:01:57.732Z,100900.31
2022-10-09T22:06:00.318Z,100894.13
2022-10-09T22:10:02.281Z,100893.84
2022-10-09T22:14:05.458Z,100888.41
2022-10-09T22:18:07.061Z,100890.06
2022-10-09T22:22:08.855Z,100881.78
2022-10-09T22:26:13.725Z,100888.06
2022-10-09T22:30:15.966Z,100877.88
2022-10-09T22:34:18.622Z,100881.72
2022-10-09T22:38:20.260Z,100879.59
2022-10-09T22:42:21.891Z,100870.38
2022-10-09T22:46:30.165Z,100867.38
2022-10-09T22:50:31.778Z,100862.41
2022-10-09T22:54:33.446Z,100855.63
2022-10-09T22:58:35.771Z,100848.34
2022-10-09T23:02:37.396Z,100842.06
2022-10-09T23:06:40.167Z,100842.84
2022-10-09T23:10:42.003Z,100826.16
2022-10-09T23:14:43.660Z,100831.13
2022-10-09T23:18:45.678Z,100831.75
2022-10-09T23:22:47.561Z,100833.59
2022-10-09T23:26:50.887Z,100824.72
2022-10-09T23:30:52.644Z,100830.94
2022-10-09T23:34:54.205Z,100818.66
2022-10-09T23:38:56.796Z,100823.31
2022-10-09T23:42:58.469Z,100811.84
2022-10-09T23:47:00.135Z,100805.72
2022-10-09T23:51:02.571Z,100809.59
2022-10-09T23:55:04.696Z,100801.25
2022-10-09T23:59:06.480Z,100801.94
